sensor_id;sensor_type;location;lat;lon;timestamp;P1;durP1;ratioP1;P2;durP2;ratioP2
11665;SDS011;5889;51.350;6.708;2022-10-16T00:02:12;7.53;;;4.73;;
11665;SDS011;5889;51.350;6.708;2022-10-16T00:04:39;9.20;;;6.07;;
11665;SDS011;5889;51.350;6.708;2022-10-16T00:07:05;8.00;;;5.53;;
11665;SDS011;5889;51.350;6.708;2022-10-16T00:09:32;9.07;;;5.93;;
11665;SDS011;5889;51.350;6.708;2022-10-16T00:12:00;11.23;;;5.77;;
11665;SDS011;5889;51.350;6.708;2022-10-16T00:14:28;12.53;;;5.70;;
11665;SDS011;5889;51.350;6.708;2022-10-16T00:16:55;10.33;;;5.80;;
11665;SDS011;5889;51.350;6.708;2022-10-16T00:19:22;15.00;;;6.00;;
11665;SDS011;5889;51.350;6.708;2022-10-16T00:21:49;8.30;;;5.03;;
11665;SDS011;5889;51.350;6.708;2022-10-16T00:24:16;5.50;;;4.70;;
11665;SDS011;5889;51.350;6.708;2022-10-16T00:26:42;10.37;;;5.60;;
11665;SDS011;5889;51.350;6.708;2022-10-16T00:29:10;6.47;;;4.47;;
11665;SDS011;5889;51.350;6.708;2022-10-16T00:31:37;8.10;;;4.60;;
11665;SDS011;5889;51.350;6.708;2022-10-16T00:34:04;7.07;;;4.37;;
11665;SDS011;5889;51.350;6.708;2022-10-16T00:36:31;6.13;;;4.37;;
11665;SDS011;5889;51.350;6.708;2022-10-16T00:38:58;6.00;;;4.07;;
11665;SDS011;5889;51.350;6.708;2022-10-16T00:41:26;7.90;;;3.73;;
11665;SDS011;5889;51.350;6.708;2022-10-16T00:43:54;8.37;;;3.80;;
11665;SDS011;5889;51.350;6.708;2022-10-16T00:46:24;5.83;;;3.60;;
11665;SDS011;5889;51.350;6.708;2022-10-16T00:48:54;9.60;;;3.60;;
11665;SDS011;5889;51.350;6.708;2022-10-16T00:51:25;5.97;;;3.40;;
11665;SDS011;5889;51.350;6.708;2022-10-16T00:53:56;5.90;;;3.30;;
11665;SDS011;5889;51.350;6.708;2022-10-16T00:56:23;5.80;;;3.33;;
11665;SDS011;5889;51.350;6.708;2022-10-16T00:58:50;4.40;;;3.17;;
11665;SDS011;5889;51.350;6.708;2022-10-16T01:01:17;5.03;;;2.83;;
11665;SDS011;5889;51.350;6.708;2022-10-16T01:03:45;4.30;;;2.80;;
11665;SDS011;5889;51.350;6.708;2022-10-16T01:06:16;7.37;;;2.90;;
11665;SDS011;5889;51.350;6.708;2022-10-16T01:08:53;5.23;;;3.13;;
11665;SDS011;5889;51.350;6.708;2022-10-16T01:11:27;4.00;;;2.40;;
11665;SDS011;5889;51.350;6.708;2022-10-16T01:14:00;4.33;;;2.40;;
11665;SDS011;5889;51.350;6.708;2022-10-16T01:16:38;7.30;;;2.60;;
11665;SDS011;5889;51.350;6.708;2022-10-16T01:19:12;4.57;;;2.60;;
11665;SDS011;5889;51.350;6.708;2022-10-16T01:21:44;5.70;;;2.50;;
11665;SDS011;5889;51.350;6.708;2022-10-16T01:24:17;4.67;;;2.47;;
11665;SDS011;5889;51.350;6.708;2022-10-16T01:27:07;5.47;;;2.50;;
11665;SDS011;5889;51.350;6.708;2022-10-16T01:29:36;4.23;;;2.90;;
11665;SDS011;5889;51.350;6.708;2022-10-16T01:32:09;5.93;;;2.53;;
11665;SDS011;5889;51.350;6.708;2022-10-16T01:34:42;5.63;;;2.73;;
11665;SDS011;5889;51.350;6.708;2022-10-16T01:37:16;8.53;;;2.87;;
11665;SDS011;5889;51.350;6.708;2022-10-16T01:39:48;6.73;;;3.60;;
11665;SDS011;5889;51.350;6.708;2022-10-16T01:42:21;5.93;;;3.83;;
11665;SDS011;5889;51.350;6.708;2022-10-16T01:44:51;8.67;;;4.73;;
11665;SDS011;5889;51.350;6.708;2022-10-16T01:47:19;12.67;;;7.27;;
11665;SDS011;5889;51.350;6.708;2022-10-16T01:49:51;16.03;;;11.03;;
11665;SDS011;5889;51.350;6.708;2022-10-16T01:52:20;30.70;;;22.37;;
11665;SDS011;5889;51.350;6.708;2022-10-16T01:54:50;48.13;;;31.30;;
11665;SDS011;5889;51.350;6.708;2022-10-16T01:57:20;52.27;;;35.43;;
11665;SDS011;5889;51.350;6.708;2022-10-16T01:59:51;55.87;;;37.30;;
11665;SDS011;5889;51.350;6.708;2022-10-16T02:02:22;49.93;;;34.07;;
11665;SDS011;5889;51.350;6.708;2022-10-16T02:04:53;38.90;;;26.50;;
11665;SDS011;5889;51.350;6.708;2022-10-16T02:07:24;36.20;;;22.60;;
11665;SDS011;5889;51.350;6.708;2022-10-16T02:09:51;29.37;;;18.53;;
11665;SDS011;5889;51.350;6.708;2022-10-16T02:12:19;22.30;;;15.37;;
11665;SDS011;5889;51.350;6.708;2022-10-16T02:14:52;23.07;;;14.97;;
11665;SDS011;5889;51.350;6.708;2022-10-16T02:17:19;20.93;;;13.37;;
11665;SDS011;5889;51.350;6.708;2022-10-16T02:19:47;21.47;;;13.50;;
11665;SDS011;5889;51.350;6.708;2022-10-16T02:22:16;18.03;;;12.03;;
11665;SDS011;5889;51.350;6.708;2022-10-16T02:24:49;15.07;;;10.97;;
11665;SDS011;5889;51.350;6.708;2022-10-16T02:27:22;13.80;;;10.33;;
11665;SDS011;5889;51.350;6.708;2022-10-16T02:29:58;17.80;;;10.10;;
11665;SDS011;5889;51.350;6.708;2022-10-16T02:32:33;18.60;;;9.90;;
11665;SDS011;5889;51.350;6.708;2022-10-16T02:35:02;13.33;;;8.73;;
11665;SDS011;5889;51.350;6.708;2022-10-16T02:37:29;9.10;;;7.40;;
11665;SDS011;5889;51.350;6.708;2022-10-16T02:39:57;10.90;;;7.43;;
11665;SDS011;5889;51.350;6.708;2022-10-16T02:42:29;9.23;;;6.67;;
11665;SDS011;5889;51.350;6.708;2022-10-16T02:44:59;8.83;;;6.13;;
11665;SDS011;5889;51.350;6.708;2022-10-16T02:47:26;9.80;;;5.43;;
11665;SDS011;5889;51.350;6.708;2022-10-16T02:49:53;6.50;;;4.80;;
11665;SDS011;5889;51.350;6.708;2022-10-16T02:52:20;7.20;;;4.83;;
11665;SDS011;5889;51.350;6.708;2022-10-16T02:54:47;7.30;;;4.13;;
11665;SDS011;5889;51.350;6.708;2022-10-16T02:57:13;6.13;;;3.97;;
11665;SDS011;5889;51.350;6.708;2022-10-16T02:59:41;7.80;;;4.00;;
11665;SDS011;5889;51.350;6.708;2022-10-16T03:02:08;4.87;;;3.40;;
11665;SDS011;5889;51.350;6.708;2022-10-16T03:04:35;5.83;;;3.50;;
11665;SDS011;5889;51.350;6.708;2022-10-16T03:07:02;5.57;;;3.00;;
11665;SDS011;5889;51.350;6.708;2022-10-16T03:09:29;6.10;;;3.00;;
11665;SDS011;5889;51.350;6.708;2022-10-16T03:11:56;4.07;;;2.67;;
11665;SDS011;5889;51.350;6.708;2022-10-16T03:14:23;6.60;;;3.03;;
11665;SDS011;5889;51.350;6.708;2022-10-16T03:16:51;4.40;;;3.00;;
11665;SDS011;5889;51.350;6.708;2022-10-16T03:19:18;5.80;;;3.10;;
11665;SDS011;5889;51.350;6.708;2022-10-16T03:21:45;9.47;;;2.90;;
11665;SDS011;5889;51.350;6.708;2022-10-16T03:24:12;5.77;;;2.60;;
11665;SDS011;5889;51.350;6.708;2022-10-16T03:26:38;4.07;;;2.60;;
11665;SDS011;5889;51.350;6.708;2022-10-16T03:29:05;8.47;;;3.03;;
11665;SDS011;5889;51.350;6.708;2022-10-16T03:31:32;6.57;;;2.97;;
11665;SDS011;5889;51.350;6.708;2022-10-16T03:34:00;5.00;;;3.03;;
11665;SDS011;5889;51.350;6.708;2022-10-16T03:36:27;5.40;;;2.63;;
11665;SDS011;5889;51.350;6.708;2022-10-16T03:38:53;5.17;;;2.40;;
11665;SDS011;5889;51.350;6.708;2022-10-16T03:41:20;5.07;;;2.10;;
11665;SDS011;5889;51.350;6.708;2022-10-16T03:43:47;4.17;;;2.13;;
11665;SDS011;5889;51.350;6.708;2022-10-16T03:46:13;3.63;;;1.97;;
11665;SDS011;5889;51.350;6.708;2022-10-16T03:48:40;3.80;;;2.23;;
11665;SDS011;5889;51.350;6.708;2022-10-16T03:51:08;4.20;;;1.83;;
11665;SDS011;5889;51.350;6.708;2022-10-16T03:53:35;5.30;;;1.93;;
11665;SDS011;5889;51.350;6.708;2022-10-16T03:56:02;3.57;;;1.90;;
11665;SDS011;5889;51.350;6.708;2022-10-16T03:58:29;4.23;;;2.47;;
11665;SDS011;5889;51.350;6.708;2022-10-16T04:00:56;3.67;;;2.27;;
11665;SDS011;5889;51.350;6.708;2022-10-16T04:03:23;6.37;;;1.97;;
11665;SDS011;5889;51.350;6.708;2022-10-16T04:05:50;4.70;;;2.07;;
11665;SDS011;5889;51.350;6.708;2022-10-16T04:08:18;3.83;;;2.43;;
11665;SDS011;5889;51.350;6.708;2022-10-16T04:10:45;3.23;;;2.30;;
11665;SDS011;5889;51.350;6.708;2022-10-16T04:13:12;3.63;;;2.47;;
11665;SDS011;5889;51.350;6.708;2022-10-16T04:15:39;3.30;;;2.80;;
11665;SDS011;5889;51.350;6.708;2022-10-16T04:18:06;8.43;;;2.80;;
11665;SDS011;5889;51.350;6.708;2022-10-16T04:20:33;4.57;;;2.57;;
11665;SDS011;5889;51.350;6.708;2022-10-16T04:23:00;7.10;;;2.90;;
11665;SDS011;5889;51.350;6.708;2022-10-16T04:25:28;4.07;;;2.20;;
11665;SDS011;5889;51.350;6.708;2022-10-16T04:27:56;6.17;;;2.30;;
11665;SDS011;5889;51.350;6.708;2022-10-16T04:30:23;5.07;;;2.63;;
11665;SDS011;5889;51.350;6.708;2022-10-16T04:32:50;5.13;;;2.37;;
11665;SDS011;5889;51.350;6.708;2022-10-16T04:35:18;2.83;;;2.23;;
11665;SDS011;5889;51.350;6.708;2022-10-16T04:37:45;4.50;;;1.97;;
11665;SDS011;5889;51.350;6.708;2022-10-16T04:40:12;3.53;;;2.03;;
11665;SDS011;5889;51.350;6.708;2022-10-16T04:42:41;2.90;;;1.90;;
11665;SDS011;5889;51.350;6.708;2022-10-16T04:45:08;3.17;;;2.00;;
11665;SDS011;5889;51.350;6.708;2022-10-16T04:47:35;4.77;;;2.37;;
11665;SDS011;5889;51.350;6.708;2022-10-16T04:50:03;2.73;;;1.83;;
11665;SDS011;5889;51.350;6.708;2022-10-16T04:52:30;2.40;;;2.00;;
11665;SDS011;5889;51.350;6.708;2022-10-16T04:54:57;3.00;;;2.10;;
11665;SDS011;5889;51.350;6.708;2022-10-16T04:57:27;3.50;;;2.20;;
11665;SDS011;5889;51.350;6.708;2022-10-16T04:59:55;4.70;;;1.93;;
11665;SDS011;5889;51.350;6.708;2022-10-16T05:02:22;5.33;;;1.90;;
11665;SDS011;5889;51.350;6.708;2022-10-16T05:04:49;3.87;;;1.90;;
11665;SDS011;5889;51.350;6.708;2022-10-16T05:07:16;2.63;;;1.90;;
11665;SDS011;5889;51.350;6.708;2022-10-16T05:09:43;5.13;;;1.90;;
11665;SDS011;5889;51.350;6.708;2022-10-16T05:12:10;4.50;;;1.90;;
11665;SDS011;5889;51.350;6.708;2022-10-16T05:14:37;3.43;;;2.17;;
11665;SDS011;5889;51.350;6.708;2022-10-16T05:17:05;6.13;;;1.93;;
11665;SDS011;5889;51.350;6.708;2022-10-16T05:19:32;3.67;;;2.10;;
11665;SDS011;5889;51.350;6.708;2022-10-16T05:21:59;2.00;;;1.80;;
11665;SDS011;5889;51.350;6.708;2022-10-16T05:24:26;3.30;;;1.80;;
11665;SDS011;5889;51.350;6.708;2022-10-16T05:26:53;3.27;;;2.20;;
11665;SDS011;5889;51.350;6.708;2022-10-16T05:29:20;2.73;;;2.50;;
11665;SDS011;5889;51.350;6.708;2022-10-16T05:31:49;3.53;;;2.10;;
11665;SDS011;5889;51.350;6.708;2022-10-16T05:34:18;4.93;;;2.00;;
11665;SDS011;5889;51.350;6.708;2022-10-16T05:36:45;4.20;;;1.80;;
11665;SDS011;5889;51.350;6.708;2022-10-16T05:39:13;6.10;;;2.53;;
11665;SDS011;5889;51.350;6.708;2022-10-16T05:41:41;4.40;;;2.13;;
11665;SDS011;5889;51.350;6.708;2022-10-16T05:44:08;4.27;;;1.90;;
11665;SDS011;5889;51.350;6.708;2022-10-16T05:46:35;6.50;;;2.10;;
11665;SDS011;5889;51.350;6.708;2022-10-16T05:49:02;2.97;;;2.23;;
11665;SDS011;5889;51.350;6.708;2022-10-16T05:51:30;3.60;;;2.23;;
11665;SDS011;5889;51.350;6.708;2022-10-16T05:53:57;3.97;;;2.07;;
11665;SDS011;5889;51.350;6.708;2022-10-16T05:56:24;2.43;;;2.23;;
11665;SDS011;5889;51.350;6.708;2022-10-16T05:58:51;4.27;;;1.90;;
11665;SDS011;5889;51.350;6.708;2022-10-16T06:01:18;3.77;;;2.33;;
11665;SDS011;5889;51.350;6.708;2022-10-16T06:03:49;3.90;;;2.37;;
11665;SDS011;5889;51.350;6.708;2022-10-16T06:06:17;4.17;;;2.30;;
11665;SDS011;5889;51.350;6.708;2022-10-16T06:08:47;2.80;;;2.40;;
11665;SDS011;5889;51.350;6.708;2022-10-16T06:11:15;6.10;;;2.67;;
11665;SDS011;5889;51.350;6.708;2022-10-16T06:13:43;4.73;;;2.60;;
11665;SDS011;5889;51.350;6.708;2022-10-16T06:16:12;3.50;;;2.80;;
11665;SDS011;5889;51.350;6.708;2022-10-16T06:18:39;4.50;;;2.50;;
11665;SDS011;5889;51.350;6.708;2022-10-16T06:21:07;4.77;;;2.47;;
11665;SDS011;5889;51.350;6.708;2022-10-16T06:23:35;4.50;;;2.60;;
11665;SDS011;5889;51.350;6.708;2022-10-16T06:26:06;4.90;;;2.73;;
11665;SDS011;5889;51.350;6.708;2022-10-16T06:28:34;3.93;;;2.40;;
11665;SDS011;5889;51.350;6.708;2022-10-16T06:31:01;8.10;;;2.53;;
11665;SDS011;5889;51.350;6.708;2022-10-16T06:33:30;3.23;;;2.70;;
11665;SDS011;5889;51.350;6.708;2022-10-16T06:36:01;3.50;;;2.67;;
11665;SDS011;5889;51.350;6.708;2022-10-16T06:38:29;4.77;;;2.57;;
11665;SDS011;5889;51.350;6.708;2022-10-16T06:40:56;7.43;;;2.97;;
11665;SDS011;5889;51.350;6.708;2022-10-16T06:43:25;5.47;;;2.50;;
11665;SDS011;5889;51.350;6.708;2022-10-16T06:45:52;4.83;;;2.60;;
11665;SDS011;5889;51.350;6.708;2022-10-16T06:48:19;3.93;;;2.60;;
11665;SDS011;5889;51.350;6.708;2022-10-16T06:50:54;5.17;;;2.67;;
11665;SDS011;5889;51.350;6.708;2022-10-16T06:53:23;6.40;;;2.60;;
11665;SDS011;5889;51.350;6.708;2022-10-16T06:55:50;4.67;;;2.70;;
11665;SDS011;5889;51.350;6.708;2022-10-16T06:58:17;5.70;;;2.80;;
11665;SDS011;5889;51.350;6.708;2022-10-16T07:00:45;4.97;;;2.90;;
11665;SDS011;5889;51.350;6.708;2022-10-16T07:03:12;5.60;;;3.20;;
11665;SDS011;5889;51.350;6.708;2022-10-16T07:05:39;5.80;;;3.00;;
11665;SDS011;5889;51.350;6.708;2022-10-16T07:08:07;5.37;;;2.97;;
11665;SDS011;5889;51.350;6.708;2022-10-16T07:10:34;5.90;;;2.90;;
11665;SDS011;5889;51.350;6.708;2022-10-16T07:13:01;5.70;;;2.97;;
11665;SDS011;5889;51.350;6.708;2022-10-16T07:15:28;5.13;;;3.40;;
11665;SDS011;5889;51.350;6.708;2022-10-16T07:17:57;3.57;;;2.50;;
11665;SDS011;5889;51.350;6.708;2022-10-16T07:20:24;4.87;;;2.57;;
11665;SDS011;5889;51.350;6.708;2022-10-16T07:22:51;4.40;;;2.70;;
11665;SDS011;5889;51.350;6.708;2022-10-16T07:25:18;8.47;;;2.70;;
11665;SDS011;5889;51.350;6.708;2022-10-16T07:27:45;3.40;;;2.43;;
11665;SDS011;5889;51.350;6.708;2022-10-16T07:30:12;4.47;;;2.23;;
11665;SDS011;5889;51.350;6.708;2022-10-16T07:32:38;3.80;;;3.07;;
11665;SDS011;5889;51.350;6.708;2022-10-16T07:35:07;5.00;;;2.80;;
11665;SDS011;5889;51.350;6.708;2022-10-16T07:37:34;11.10;;;6.20;;
11665;SDS011;5889;51.350;6.708;2022-10-16T07:40:01;5.17;;;3.13;;
11665;SDS011;5889;51.350;6.708;2022-10-16T07:42:28;3.30;;;2.40;;
11665;SDS011;5889;51.350;6.708;2022-10-16T07:44:55;4.77;;;2.83;;
11665;SDS011;5889;51.350;6.708;2022-10-16T07:47:22;3.67;;;2.40;;
11665;SDS011;5889;51.350;6.708;2022-10-16T07:49:49;4.07;;;2.30;;
11665;SDS011;5889;51.350;6.708;2022-10-16T07:52:17;4.53;;;2.37;;
11665;SDS011;5889;51.350;6.708;2022-10-16T07:54:44;2.67;;;2.30;;
11665;SDS011;5889;51.350;6.708;2022-10-16T07:57:11;7.10;;;2.70;;
11665;SDS011;5889;51.350;6.708;2022-10-16T07:59:43;4.33;;;2.60;;
11665;SDS011;5889;51.350;6.708;2022-10-16T08:02:12;2.70;;;2.20;;
11665;SDS011;5889;51.350;6.708;2022-10-16T08:04:39;7.57;;;2.50;;
11665;SDS011;5889;51.350;6.708;2022-10-16T08:07:06;3.47;;;2.00;;
11665;SDS011;5889;51.350;6.708;2022-10-16T08:09:35;3.27;;;2.00;;
11665;SDS011;5889;51.350;6.708;2022-10-16T08:12:02;3.30;;;2.10;;
11665;SDS011;5889;51.350;6.708;2022-10-16T08:14:30;2.50;;;1.97;;
11665;SDS011;5889;51.350;6.708;2022-10-16T08:16:57;4.00;;;2.07;;
11665;SDS011;5889;51.350;6.708;2022-10-16T08:19:24;2.17;;;1.93;;
11665;SDS011;5889;51.350;6.708;2022-10-16T08:21:51;6.97;;;1.57;;
11665;SDS011;5889;51.350;6.708;2022-10-16T08:24:18;3.07;;;1.67;;
11665;SDS011;5889;51.350;6.708;2022-10-16T08:26:46;3.40;;;1.73;;
11665;SDS011;5889;51.350;6.708;2022-10-16T08:29:13;4.77;;;1.40;;
11665;SDS011;5889;51.350;6.708;2022-10-16T08:31:40;6.50;;;1.77;;
11665;SDS011;5889;51.350;6.708;2022-10-16T08:34:07;3.50;;;1.50;;
11665;SDS011;5889;51.350;6.708;2022-10-16T08:36:34;3.20;;;1.43;;
11665;SDS011;5889;51.350;6.708;2022-10-16T08:39:01;3.90;;;1.40;;
11665;SDS011;5889;51.350;6.708;2022-10-16T08:41:33;5.50;;;1.57;;
11665;SDS011;5889;51.350;6.708;2022-10-16T08:44:22;3.23;;;1.80;;
11665;SDS011;5889;51.350;6.708;2022-10-16T08:47:02;3.80;;;1.50;;
11665;SDS011;5889;51.350;6.708;2022-10-16T08:49:47;5.57;;;1.60;;
11665;SDS011;5889;51.350;6.708;2022-10-16T08:52:21;4.70;;;1.30;;
11665;SDS011;5889;51.350;6.708;2022-10-16T08:54:51;2.20;;;1.20;;
11665;SDS011;5889;51.350;6.708;2022-10-16T08:57:21;2.87;;;1.10;;
11665;SDS011;5889;51.350;6.708;2022-10-16T08:59:52;2.50;;;1.23;;
11665;SDS011;5889;51.350;6.708;2022-10-16T09:02:26;3.50;;;1.37;;
11665;SDS011;5889;51.350;6.708;2022-10-16T09:07:57;2.20;;;1.30;;
11665;SDS011;5889;51.350;6.708;2022-10-16T09:10:37;3.80;;;1.50;;
11665;SDS011;5889;51.350;6.708;2022-10-16T09:13:13;4.43;;;1.30;;
11665;SDS011;5889;51.350;6.708;2022-10-16T09:15:49;3.40;;;1.50;;
11665;SDS011;5889;51.350;6.708;2022-10-16T09:18:23;4.73;;;1.30;;
11665;SDS011;5889;51.350;6.708;2022-10-16T09:20:56;2.23;;;1.30;;
11665;SDS011;5889;51.350;6.708;2022-10-16T09:23:30;4.17;;;1.70;;
11665;SDS011;5889;51.350;6.708;2022-10-16T09:26:00;2.67;;;1.10;;
11665;SDS011;5889;51.350;6.708;2022-10-16T09:28:28;5.10;;;1.47;;
11665;SDS011;5889;51.350;6.708;2022-10-16T09:30:57;1.83;;;0.97;;
11665;SDS011;5889;51.350;6.708;2022-10-16T09:33:25;2.57;;;1.20;;
11665;SDS011;5889;51.350;6.708;2022-10-16T09:35:56;2.10;;;0.97;;
11665;SDS011;5889;51.350;6.708;2022-10-16T09:38:27;3.37;;;0.93;;
11665;SDS011;5889;51.350;6.708;2022-10-16T09:40:55;4.17;;;1.20;;
11665;SDS011;5889;51.350;6.708;2022-10-16T09:43:24;5.77;;;1.40;;
11665;SDS011;5889;51.350;6.708;2022-10-16T09:45:58;2.57;;;1.07;;
11665;SDS011;5889;51.350;6.708;2022-10-16T09:48:28;3.40;;;1.07;;
11665;SDS011;5889;51.350;6.708;2022-10-16T09:51:00;2.23;;;1.13;;
11665;SDS011;5889;51.350;6.708;2022-10-16T09:53:38;3.30;;;1.00;;
11665;SDS011;5889;51.350;6.708;2022-10-16T09:56:06;3.37;;;0.97;;
11665;SDS011;5889;51.350;6.708;2022-10-16T10:01:40;1.80;;;0.87;;
11665;SDS011;5889;51.350;6.708;2022-10-16T10:04:09;1.03;;;0.83;;
11665;SDS011;5889;51.350;6.708;2022-10-16T10:06:37;4.03;;;1.03;;
11665;SDS011;5889;51.350;6.708;2022-10-16T10:09:16;2.43;;;0.80;;
11665;SDS011;5889;51.350;6.708;2022-10-16T10:11:47;2.07;;;1.03;;
11665;SDS011;5889;51.350;6.708;2022-10-16T10:14:20;2.30;;;1.00;;
11665;SDS011;5889;51.350;6.708;2022-10-16T10:16:50;3.77;;;1.20;;
11665;SDS011;5889;51.350;6.708;2022-10-16T10:19:18;0.90;;;0.70;;
11665;SDS011;5889;51.350;6.708;2022-10-16T10:21:47;3.43;;;0.93;;
11665;SDS011;5889;51.350;6.708;2022-10-16T10:24:15;1.53;;;0.80;;
11665;SDS011;5889;51.350;6.708;2022-10-16T10:26:45;3.23;;;1.10;;
11665;SDS011;5889;51.350;6.708;2022-10-16T10:29:19;1.87;;;0.80;;
11665;SDS011;5889;51.350;6.708;2022-10-16T10:31:56;4.87;;;1.23;;
11665;SDS011;5889;51.350;6.708;2022-10-16T10:34:36;2.90;;;1.17;;
11665;SDS011;5889;51.350;6.708;2022-10-16T10:37:26;3.67;;;1.13;;
11665;SDS011;5889;51.350;6.708;2022-10-16T10:40:05;4.13;;;1.03;;
11665;SDS011;5889;51.350;6.708;2022-10-16T10:42:42;1.97;;;1.10;;
11665;SDS011;5889;51.350;6.708;2022-10-16T10:45:17;3.80;;;0.90;;
11665;SDS011;5889;51.350;6.708;2022-10-16T10:47:52;5.33;;;1.00;;
11665;SDS011;5889;51.350;6.708;2022-10-16T10:50:38;3.80;;;1.27;;
11665;SDS011;5889;51.350;6.708;2022-10-16T10:53:11;3.50;;;1.03;;
11665;SDS011;5889;51.350;6.708;2022-10-16T10:55:45;4.30;;;1.03;;
11665;SDS011;5889;51.350;6.708;2022-10-16T10:58:24;4.03;;;0.90;;
11665;SDS011;5889;51.350;6.708;2022-10-16T11:01:17;2.40;;;0.87;;
11665;SDS011;5889;51.350;6.708;2022-10-16T11:03:56;2.33;;;0.90;;
11665;SDS011;5889;51.350;6.708;2022-10-16T11:06:39;2.30;;;0.70;;
11665;SDS011;5889;51.350;6.708;2022-10-16T11:09:09;5.70;;;1.80;;
11665;SDS011;5889;51.350;6.708;2022-10-16T11:11:40;4.37;;;1.00;;
11665;SDS011;5889;51.350;6.708;2022-10-16T11:14:11;3.30;;;1.27;;
11665;SDS011;5889;51.350;6.708;2022-10-16T11:16:43;2.00;;;0.80;;
11665;SDS011;5889;51.350;6.708;2022-10-16T11:19:18;4.80;;;1.00;;
11665;SDS011;5889;51.350;6.708;2022-10-16T11:21:55;4.57;;;1.40;;
11665;SDS011;5889;51.350;6.708;2022-10-16T11:24:28;3.92;;;1.20;;
11665;SDS011;5889;51.350;6.708;2022-10-16T11:27:01;2.90;;;1.10;;
11665;SDS011;5889;51.350;6.708;2022-10-16T11:29:34;2.75;;;0.80;;
11665;SDS011;5889;51.350;6.708;2022-10-16T11:32:06;2.42;;;0.98;;
11665;SDS011;5889;51.350;6.708;2022-10-16T11:34:45;3.78;;;1.10;;
11665;SDS011;5889;51.350;6.708;2022-10-16T11:37:17;3.03;;;1.63;;
11665;SDS011;5889;51.350;6.708;2022-10-16T11:39:47;5.17;;;1.00;;
11665;SDS011;5889;51.350;6.708;2022-10-16T11:42:18;3.17;;;1.20;;
11665;SDS011;5889;51.350;6.708;2022-10-16T11:44:51;4.13;;;1.20;;
11665;SDS011;5889;51.350;6.708;2022-10-16T11:47:26;4.65;;;1.10;;
11665;SDS011;5889;51.350;6.708;2022-10-16T11:50:00;2.78;;;0.90;;
11665;SDS011;5889;51.350;6.708;2022-10-16T11:52:30;4.13;;;1.05;;
11665;SDS011;5889;51.350;6.708;2022-10-16T11:55:05;2.50;;;1.25;;
11665;SDS011;5889;51.350;6.708;2022-10-16T11:57:41;2.33;;;0.73;;
11665;SDS011;5889;51.350;6.708;2022-10-16T12:00:15;3.17;;;1.00;;
11665;SDS011;5889;51.350;6.708;2022-10-16T12:02:53;3.47;;;1.55;;
11665;SDS011;5889;51.350;6.708;2022-10-16T12:05:27;3.88;;;1.27;;
11665;SDS011;5889;51.350;6.708;2022-10-16T12:08:03;4.90;;;1.05;;
11665;SDS011;5889;51.350;6.708;2022-10-16T12:10:34;2.80;;;1.27;;
11665;SDS011;5889;51.350;6.708;2022-10-16T12:13:02;3.75;;;1.33;;
11665;SDS011;5889;51.350;6.708;2022-10-16T12:15:30;2.10;;;0.82;;
11665;SDS011;5889;51.350;6.708;2022-10-16T12:17:58;2.15;;;0.73;;
11665;SDS011;5889;51.350;6.708;2022-10-16T12:20:29;4.53;;;1.00;;
11665;SDS011;5889;51.350;6.708;2022-10-16T12:22:58;2.08;;;0.80;;
11665;SDS011;5889;51.350;6.708;2022-10-16T12:25:28;3.00;;;0.95;;
11665;SDS011;5889;51.350;6.708;2022-10-16T12:27:58;5.28;;;0.95;;
11665;SDS011;5889;51.350;6.708;2022-10-16T12:30:30;2.45;;;1.00;;
11665;SDS011;5889;51.350;6.708;2022-10-16T12:33:00;4.18;;;1.23;;
11665;SDS011;5889;51.350;6.708;2022-10-16T12:35:31;1.65;;;1.00;;
11665;SDS011;5889;51.350;6.708;2022-10-16T12:38:14;4.97;;;1.00;;
11665;SDS011;5889;51.350;6.708;2022-10-16T12:40:43;4.55;;;1.00;;
11665;SDS011;5889;51.350;6.708;2022-10-16T12:46:03;3.90;;;1.00;;
11665;SDS011;5889;51.350;6.708;2022-10-16T12:48:46;2.25;;;1.13;;
11665;SDS011;5889;51.350;6.708;2022-10-16T12:51:22;2.53;;;1.40;;
11665;SDS011;5889;51.350;6.708;2022-10-16T12:54:00;4.30;;;0.98;;
11665;SDS011;5889;51.350;6.708;2022-10-16T12:56:31;3.45;;;1.08;;
11665;SDS011;5889;51.350;6.708;2022-10-16T12:59:09;3.63;;;1.10;;
11665;SDS011;5889;51.350;6.708;2022-10-16T13:01:45;1.77;;;1.00;;
11665;SDS011;5889;51.350;6.708;2022-10-16T13:04:31;4.15;;;1.00;;
11665;SDS011;5889;51.350;6.708;2022-10-16T13:07:17;3.60;;;1.17;;
11665;SDS011;5889;51.350;6.708;2022-10-16T13:09:58;3.22;;;1.00;;
11665;SDS011;5889;51.350;6.708;2022-10-16T13:12:46;2.15;;;1.08;;
11665;SDS011;5889;51.350;6.708;2022-10-16T13:15:26;2.85;;;0.85;;
11665;SDS011;5889;51.350;6.708;2022-10-16T13:18:06;1.77;;;0.93;;
11665;SDS011;5889;51.350;6.708;2022-10-16T13:20:50;3.72;;;1.10;;
11665;SDS011;5889;51.350;6.708;2022-10-16T13:23:28;3.63;;;1.15;;
11665;SDS011;5889;51.350;6.708;2022-10-16T13:26:02;3.60;;;0.98;;
11665;SDS011;5889;51.350;6.708;2022-10-16T13:28:37;3.15;;;1.00;;
11665;SDS011;5889;51.350;6.708;2022-10-16T13:31:05;2.22;;;0.80;;
11665;SDS011;5889;51.350;6.708;2022-10-16T13:33:41;4.18;;;1.30;;
11665;SDS011;5889;51.350;6.708;2022-10-16T13:36:17;3.95;;;1.00;;
11665;SDS011;5889;51.350;6.708;2022-10-16T13:38:47;1.67;;;0.75;;
11665;SDS011;5889;51.350;6.708;2022-10-16T13:41:16;1.77;;;0.95;;
11665;SDS011;5889;51.350;6.708;2022-10-16T13:43:45;2.42;;;1.40;;
11665;SDS011;5889;51.350;6.708;2022-10-16T13:46:15;1.05;;;0.70;;
11665;SDS011;5889;51.350;6.708;2022-10-16T13:48:43;3.85;;;0.68;;
11665;SDS011;5889;51.350;6.708;2022-10-16T13:51:12;2.53;;;0.90;;
11665;SDS011;5889;51.350;6.708;2022-10-16T13:53:40;2.25;;;0.80;;
11665;SDS011;5889;51.350;6.708;2022-10-16T13:56:09;1.60;;;0.50;;
11665;SDS011;5889;51.350;6.708;2022-10-16T13:58:37;2.38;;;0.80;;
11665;SDS011;5889;51.350;6.708;2022-10-16T14:01:05;3.78;;;0.60;;
11665;SDS011;5889;51.350;6.708;2022-10-16T14:03:43;2.50;;;0.70;;
11665;SDS011;5889;51.350;6.708;2022-10-16T14:06:11;1.70;;;0.80;;
11665;SDS011;5889;51.350;6.708;2022-10-16T14:08:41;1.15;;;0.77;;
11665;SDS011;5889;51.350;6.708;2022-10-16T14:11:12;4.70;;;1.13;;
11665;SDS011;5889;51.350;6.708;2022-10-16T14:13:39;3.03;;;0.90;;
11665;SDS011;5889;51.350;6.708;2022-10-16T14:16:11;2.17;;;1.08;;
11665;SDS011;5889;51.350;6.708;2022-10-16T14:18:44;1.85;;;0.77;;
11665;SDS011;5889;51.350;6.708;2022-10-16T14:21:16;3.15;;;0.70;;
11665;SDS011;5889;51.350;6.708;2022-10-16T14:23:44;2.80;;;0.90;;
11665;SDS011;5889;51.350;6.708;2022-10-16T14:26:13;3.05;;;0.80;;
11665;SDS011;5889;51.350;6.708;2022-10-16T14:28:42;2.92;;;0.77;;
11665;SDS011;5889;51.350;6.708;2022-10-16T14:31:26;3.22;;;0.75;;
11665;SDS011;5889;51.350;6.708;2022-10-16T14:33:55;3.03;;;0.95;;
11665;SDS011;5889;51.350;6.708;2022-10-16T14:36:22;3.75;;;1.00;;
11665;SDS011;5889;51.350;6.708;2022-10-16T14:38:54;1.65;;;0.80;;
11665;SDS011;5889;51.350;6.708;2022-10-16T14:41:28;2.83;;;0.85;;
11665;SDS011;5889;51.350;6.708;2022-10-16T14:43:56;2.63;;;1.08;;
11665;SDS011;5889;51.350;6.708;2022-10-16T14:46:31;3.90;;;1.00;;
11665;SDS011;5889;51.350;6.708;2022-10-16T14:49:02;3.45;;;0.80;;
11665;SDS011;5889;51.350;6.708;2022-10-16T14:51:38;3.40;;;0.80;;
11665;SDS011;5889;51.350;6.708;2022-10-16T14:54:07;4.43;;;0.95;;
11665;SDS011;5889;51.350;6.708;2022-10-16T14:56:42;3.15;;;1.08;;
11665;SDS011;5889;51.350;6.708;2022-10-16T14:59:13;2.08;;;0.80;;
11665;SDS011;5889;51.350;6.708;2022-10-16T15:01:42;5.18;;;1.00;;
11665;SDS011;5889;51.350;6.708;2022-10-16T15:04:09;2.20;;;1.00;;
11665;SDS011;5889;51.350;6.708;2022-10-16T15:06:38;4.15;;;1.30;;
11665;SDS011;5889;51.350;6.708;2022-10-16T15:09:05;4.70;;;1.08;;
11665;SDS011;5889;51.350;6.708;2022-10-16T15:11:32;3.42;;;1.17;;
11665;SDS011;5889;51.350;6.708;2022-10-16T15:14:00;2.60;;;0.85;;
11665;SDS011;5889;51.350;6.708;2022-10-16T15:16:28;1.58;;;0.80;;
11665;SDS011;5889;51.350;6.708;2022-10-16T15:18:55;3.70;;;0.90;;
11665;SDS011;5889;51.350;6.708;2022-10-16T15:21:24;3.08;;;0.90;;
11665;SDS011;5889;51.350;6.708;2022-10-16T15:23:52;2.13;;;0.70;;
11665;SDS011;5889;51.350;6.708;2022-10-16T15:26:21;2.15;;;0.80;;
11665;SDS011;5889;51.350;6.708;2022-10-16T15:28:48;10.13;;;6.28;;